Market Deeping, United Kingdom
Current Conditions -  °F | °C
As of 7:50 PM on Friday 28 Nov 2014 (Local Time) from EGXT Reporting Station
Haze Haze  
Wind Chill: 44°   Ceiling: 12000
Heat Index: 48°   Visibility: 2.4mi
Dew Point: 46°   Wind: 9mph
Humidity: 93%   Direction: 50°NE
Pressure: 29.74"   Gusts: NA
Location:  52.68°N, 0.32°W
Report Text: EGXT 281950Z AUTO 05008KT 3900 BR SCT007/// BKN120/// 09/08 Q1007
Loading
Personal Weather Stations






























Interactive Weather Map New forecast layout! Learn more

10-Day Weather Forecast

Advertisements
Track Severe Weather on mobile